createdAt,value
2022-10-03T00:06:35.604Z,8.70
2022-10-03T00:17:11.050Z,9.00
2022-10-03T00:27:53.863Z,7.00
2022-10-03T00:38:57.207Z,6.90
2022-10-03T00:49:26.674Z,13.50
2022-10-03T01:00:15.218Z,12.40
2022-10-03T01:11:08.337Z,11.70
2022-10-03T01:21:32.880Z,16.00
2022-10-03T01:32:49.275Z,12.90
2022-10-03T01:43:21.280Z,13.90
2022-10-03T01:53:57.070Z,13.40
2022-10-03T02:04:25.687Z,15.60
2022-10-03T02:14:47.164Z,15.90
2022-10-03T02:26:11.753Z,11.70
2022-10-03T02:37:07.476Z,12.20
2022-10-03T02:48:30.197Z,9.60
2022-10-03T02:59:08.336Z,11.30
2022-10-03T03:10:36.493Z,11.80
2022-10-03T03:21:41.302Z,10.50
2022-10-03T03:32:25.176Z,11.10
2022-10-03T03:43:20.362Z,16.00
2022-10-03T03:54:27.619Z,11.00
2022-10-03T04:05:59.074Z,10.70
2022-10-03T04:17:15.333Z,10.00
2022-10-03T04:28:29.458Z,12.00
2022-10-03T04:39:13.521Z,11.10
2022-10-03T04:49:59.828Z,9.70
2022-10-03T05:00:56.212Z,13.40
2022-10-03T05:12:03.926Z,13.70
2022-10-03T05:22:54.293Z,10.60
2022-10-03T05:33:23.333Z,10.40
2022-10-03T05:44:29.465Z,9.50
2022-10-03T05:55:20.926Z,8.70
2022-10-03T06:06:32.407Z,8.20
2022-10-03T06:17:43.288Z,13.20
2022-10-03T06:28:02.804Z,9.40
2022-10-03T06:38:35.040Z,8.60
2022-10-03T06:49:16.070Z,7.50
2022-10-03T06:59:43.557Z,6.30
2022-10-03T07:10:08.582Z,8.50
2022-10-03T07:21:17.009Z,8.00
2022-10-03T07:32:09.958Z,6.70
2022-10-03T07:42:46.999Z,6.40
2022-10-03T07:53:01.176Z,4.90
2022-10-03T08:03:28.058Z,5.00
2022-10-03T08:14:35.470Z,5.10
2022-10-03T08:25:49.707Z,5.30
2022-10-03T08:36:59.927Z,3.60
2022-10-03T08:48:10.692Z,4.30
2022-10-03T08:59:00.872Z,6.10
2022-10-03T09:10:21.537Z,6.20
2022-10-03T09:21:07.162Z,4.60
2022-10-03T09:31:48.456Z,5.80
2022-10-03T09:42:34.102Z,5.30
2022-10-03T09:53:40.163Z,6.40
2022-10-03T10:04:54.148Z,8.40
2022-10-03T10:15:46.460Z,5.90
2022-10-03T10:26:14.040Z,8.40
2022-10-03T10:37:33.628Z,7.00
2022-10-03T10:48:19.512Z,5.90
2022-10-03T10:58:59.292Z,4.70
2022-10-03T11:09:47.667Z,4.50
2022-10-03T11:20:38.093Z,2.20
2022-10-03T11:31:29.846Z,2.90
2022-10-03T11:42:02.361Z,2.70
2022-10-03T11:52:55.179Z,4.10
2022-10-03T12:03:33.098Z,4.40
2022-10-03T12:14:20.291Z,2.10
2022-10-03T12:25:07.295Z,4.70
2022-10-03T12:36:14.516Z,1.80
2022-10-03T12:47:07.755Z,4.90
2022-10-03T12:57:47.445Z,4.20
2022-10-03T13:08:07.964Z,3.70
2022-10-03T13:18:42.959Z,7.90
2022-10-03T13:29:20.500Z,4.30
2022-10-03T13:39:37.033Z,3.10
2022-10-03T13:50:01.400Z,2.40
2022-10-03T14:00:23.721Z,4.80
2022-10-03T14:11:08.105Z,3.00
2022-10-03T14:21:57.131Z,2.40
2022-10-03T14:32:47.347Z,2.60
2022-10-03T14:43:31.852Z,4.70
2022-10-03T14:54:31.515Z,3.70
2022-10-03T15:04:42.511Z,3.40
2022-10-03T15:15:15.948Z,5.20
2022-10-03T15:25:53.160Z,5.40
2022-10-03T15:36:32.810Z,2.30
2022-10-03T15:47:06.828Z,3.90
2022-10-03T15:57:32.120Z,3.20
2022-10-03T16:08:25.906Z,3.70
2022-10-03T16:19:10.964Z,5.20
2022-10-03T16:29:54.433Z,4.60
2022-10-03T16:40:40.547Z,9.00
2022-10-03T17:02:19.845Z,8.10
2022-10-03T17:13:07.037Z,8.80
2022-10-03T17:24:17.464Z,7.40
2022-10-03T17:35:00.122Z,6.70
2022-10-03T17:45:48.217Z,6.10
2022-10-03T17:56:46.059Z,5.40
2022-10-03T18:07:27.675Z,7.50
2022-10-03T18:17:54.891Z,6.80
2022-10-03T18:29:06.263Z,5.70
2022-10-03T18:51:58.804Z,6.80
2022-10-03T19:02:22.105Z,8.40
2022-10-03T19:13:05.540Z,10.20
2022-10-03T19:23:36.394Z,8.60
2022-10-03T19:34:01.387Z,11.30
2022-10-03T19:44:22.318Z,9.50
2022-10-03T19:55:15.444Z,10.00
2022-10-03T20:06:11.824Z,15.30
2022-10-03T20:16:37.365Z,12.50
2022-10-03T20:27:52.145Z,10.40
2022-10-03T20:38:59.293Z,10.80
2022-10-03T20:49:53.361Z,13.10
2022-10-03T21:01:08.161Z,14.30
2022-10-03T21:11:19.472Z,14.90
2022-10-03T21:21:51.762Z,14.90
2022-10-03T21:33:10.104Z,16.10
2022-10-03T21:43:30.334Z,13.10
2022-10-03T21:53:55.312Z,14.20
2022-10-03T22:04:41.753Z,12.20
2022-10-03T22:15:55.716Z,15.90
2022-10-03T22:26:27.247Z,17.50
2022-10-03T22:36:54.857Z,19.00
2022-10-03T22:47:24.146Z,18.20
2022-10-03T22:57:36.083Z,16.10
2022-10-03T23:08:23.842Z,17.50
2022-10-03T23:39:38.387Z,8.50
2022-10-03T23:50:15.151Z,10.00
